Time;durP1;ratioP1;P1;durP2;ratioP2;P2;SDS_P1;SDS_P2;PMS_P1;PMS_P2;Temp;Humidity;BMP_temperature;BMP_pressure;BME280_temperature;BME280_humidity;BME280_pressure;Samples;Min_cycle;Max_cycle;Signal;HPM_P1;HPM_P2
2023/01/21 00:01:56;;;;;;;48.33;24.23;;;-4.50;99.90;;;;;;5011554;28;20179;-78
2023/01/21 00:04:21;;;;;;;48.67;24.93;;;-4.50;99.90;;;;;;5011073;28;20210;-79
2023/01/21 00:06:48;;;;;;;46.53;24.07;;;-4.50;99.90;;;;;;5012815;28;20287;-82
2023/01/21 00:09:14;;;;;;;47.07;23.30;;;-4.50;99.90;;;;;;5011667;28;20192;-80
2023/01/21 00:11:39;;;;;;;48.50;24.10;;;-4.50;99.90;;;;;;5011514;28;20192;-81
2023/01/21 00:14:05;;;;;;;46.03;23.70;;;-4.60;99.90;;;;;;5010165;28;20183;-81
2023/01/21 00:16:31;;;;;;;45.90;23.40;;;-4.60;99.90;;;;;;5010590;28;20211;-80
2023/01/21 00:18:56;;;;;;;47.33;23.40;;;-4.60;99.90;;;;;;5012438;28;20229;-82
2023/01/21 00:21:22;;;;;;;46.60;23.60;;;-4.60;99.90;;;;;;5012706;28;20266;-82
2023/01/21 00:23:47;;;;;;;46.90;23.23;;;-4.70;99.90;;;;;;5011653;28;20650;-79
2023/01/21 00:26:13;;;;;;;48.03;23.00;;;-4.70;99.90;;;;;;5011848;28;20203;-80
2023/01/21 00:28:40;;;;;;;43.57;22.70;;;-4.70;99.90;;;;;;5012249;28;20223;-79
2023/01/21 00:31:07;;;;;;;46.93;23.50;;;-4.80;99.90;;;;;;5011106;28;20201;-79
2023/01/21 00:33:34;;;;;;;47.63;22.87;;;-4.90;99.90;;;;;;5012559;28;20184;-81
2023/01/21 00:36:02;;;;;;;44.53;22.77;;;-4.90;99.90;;;;;;5010263;28;20287;-79
2023/01/21 00:38:28;;;;;;;43.27;23.00;;;-4.90;99.90;;;;;;5012132;28;20218;-83
2023/01/21 00:41:04;;;;;;;50.43;23.93;;;-4.90;99.90;;;;;;5012663;28;20183;-80
2023/01/21 00:43:30;;;;;;;46.70;23.87;;;-4.80;99.90;;;;;;5010880;28;20218;-79
2023/01/21 00:45:56;;;;;;;42.67;23.67;;;-4.80;99.90;;;;;;5010390;28;20208;-82
2023/01/21 00:48:21;;;;;;;46.37;22.33;;;-4.70;99.90;;;;;;5012830;28;20234;-82
2023/01/21 00:50:47;;;;;;;43.50;23.13;;;-4.70;99.90;;;;;;5011325;28;20556;-79
2023/01/21 00:53:13;;;;;;;53.07;26.70;;;-4.70;99.90;;;;;;5012222;28;20245;-82
2023/01/21 00:55:38;;;;;;;48.87;24.47;;;-4.50;99.90;;;;;;5011328;28;20215;-81
2023/01/21 00:58:04;;;;;;;44.87;24.13;;;-4.40;99.90;;;;;;5011640;28;20179;-82
2023/01/21 01:00:29;;;;;;;45.43;23.93;;;-4.40;99.90;;;;;;5010985;28;20599;-82
2023/01/21 01:02:55;;;;;;;44.30;24.53;;;-4.30;99.90;;;;;;5011573;28;20192;-83
2023/01/21 01:05:21;;;;;;;41.50;22.90;;;-4.20;99.90;;;;;;5025819;28;20222;-80
2023/01/21 01:07:49;;;;;;;42.90;23.57;;;-4.20;99.90;;;;;;5009396;28;20212;-80
2023/01/21 01:10:15;;;;;;;41.33;23.30;;;-4.10;99.90;;;;;;5010674;28;20530;-83
2023/01/21 01:12:41;;;;;;;44.37;22.87;;;-4.00;99.90;;;;;;5010394;28;20207;-82
2023/01/21 01:15:07;;;;;;;41.67;23.00;;;-3.90;99.90;;;;;;5011142;28;21132;-80
2023/01/21 01:17:33;;;;;;;41.20;24.20;;;-3.80;99.90;;;;;;5012036;28;20302;-81
2023/01/21 01:19:59;;;;;;;41.53;23.17;;;-3.70;99.90;;;;;;5011041;28;20211;-80
2023/01/21 01:22:24;;;;;;;44.17;23.50;;;-3.60;99.90;;;;;;5012016;28;20190;-81
2023/01/21 01:24:50;;;;;;;44.40;24.57;;;-3.60;99.90;;;;;;5010797;28;20195;-80
2023/01/21 01:27:15;;;;;;;48.00;24.03;;;-3.50;99.90;;;;;;5011462;28;20274;-82
2023/01/21 01:29:41;;;;;;;42.20;23.67;;;-3.40;99.90;;;;;;5012129;28;20226;-81
2023/01/21 01:32:07;;;;;;;41.90;23.93;;;-3.30;99.90;;;;;;5011846;28;20188;-81
2023/01/21 01:34:32;;;;;;;44.13;25.13;;;-3.30;99.90;;;;;;5011085;28;20192;-82
2023/01/21 01:36:58;;;;;;;44.07;24.17;;;-3.20;99.90;;;;;;5010426;28;20213;-81
2023/01/21 01:39:23;;;;;;;42.80;23.43;;;-3.20;99.90;;;;;;5010475;28;20700;-83
2023/01/21 01:41:49;;;;;;;44.83;23.13;;;-3.10;99.90;;;;;;5010576;28;20278;-81
2023/01/21 01:44:52;;;;;;;42.20;23.17;;;-3.10;99.90;;;;;;5010839;28;20299;-82
2023/01/21 01:47:18;;;;;;;40.83;21.63;;;-3.00;99.90;;;;;;5011526;28;20215;-81
2023/01/21 01:49:44;;;;;;;44.33;23.70;;;-3.00;99.90;;;;;;5010801;28;20191;-81
2023/01/21 01:52:13;;;;;;;38.87;20.80;;;-2.90;99.90;;;;;;5010847;28;20188;-82
2023/01/21 01:54:44;;;;;;;41.47;23.13;;;-2.90;99.90;;;;;;5025526;28;20549;-81
2023/01/21 01:57:13;;;;;;;42.93;24.30;;;-2.80;99.90;;;;;;5009588;28;20298;-81
2023/01/21 01:59:39;;;;;;;41.47;23.60;;;-2.80;99.90;;;;;;5009480;28;20187;-79
2023/01/21 02:02:12;;;;;;;42.60;23.40;;;-2.70;99.90;;;;;;5010552;28;20196;-81
2023/01/21 02:04:43;;;;;;;40.67;23.60;;;-2.70;99.90;;;;;;5011348;28;20270;-80
2023/01/21 02:07:08;;;;;;;47.27;24.20;;;-2.70;99.90;;;;;;5007928;28;20465;-81
2023/01/21 02:09:34;;;;;;;49.97;23.97;;;-2.60;99.90;;;;;;5025004;28;20183;-82
2023/01/21 02:12:02;;;;;;;45.37;25.13;;;-2.50;1.00;;;;;;5010655;28;20218;-81
2023/01/21 02:14:29;;;;;;;46.20;25.30;;;-2.50;1.00;;;;;;5010778;28;20187;-79
2023/01/21 02:17:18;;;;;;;49.80;26.83;;;-2.40;1.00;;;;;;5011968;28;20206;-81
2023/01/21 02:20:01;;;;;;;46.67;24.63;;;-2.30;1.00;;;;;;5009916;28;20574;-80
2023/01/21 02:22:39;;;;;;;51.10;26.43;;;-2.30;1.00;;;;;;5027158;28;20198;-80
2023/01/21 02:25:29;;;;;;;52.67;28.27;;;-2.20;1.00;;;;;;5012174;28;20172;-80
2023/01/21 02:28:17;;;;;;;49.73;26.23;;;-2.10;1.00;;;;;;5010309;28;20302;-80
2023/01/21 02:31:12;;;;;;;53.27;28.53;;;-2.10;1.00;;;;;;5011398;28;20720;-80
2023/01/21 02:34:00;;;;;;;44.17;25.33;;;-1.90;1.00;;;;;;5029038;28;20200;-82
2023/01/21 02:36:59;;;;;;;49.90;26.30;;;-1.90;99.90;;;;;;5028105;28;20209;-80
2023/01/21 02:39:53;;;;;;;47.40;25.07;;;-1.80;99.90;;;;;;5016315;28;20183;-80
2023/01/21 02:42:36;;;;;;;46.80;23.07;;;0.50;99.90;;;;;;5034149;28;20229;-80
2023/01/21 02:45:37;;;;;;;47.43;24.53;;;-1.60;99.90;;;;;;5015742;28;20183;-81
2023/01/21 02:48:11;;;;;;;43.93;23.90;;;-1.60;99.90;;;;;;5017671;28;20294;-79
2023/01/21 02:50:43;;;;;;;43.17;23.80;;;-1.50;99.90;;;;;;5018474;28;21173;-80
2023/01/21 02:53:29;;;;;;;42.83;22.70;;;-1.40;99.90;;;;;;5018382;28;20187;-81
2023/01/21 02:55:57;;;;;;;43.47;23.40;;;-1.30;99.90;;;;;;5017864;28;20338;-80
2023/01/21 02:58:30;;;;;;;38.50;22.10;;;-1.20;99.90;;;;;;5018855;28;20187;-82
2023/01/21 03:01:34;;;;;;;38.00;21.13;;;-1.20;99.90;;;;;;5016516;28;20179;-79
2023/01/21 03:04:26;;;;;;;35.67;20.27;;;-1.10;10.10;;;;;;5016448;28;20537;-80
2023/01/21 03:07:14;;;;;;;32.97;19.50;;;-1.20;1.00;;;;;;5016253;28;20342;-78
2023/01/21 03:09:39;;;;;;;38.63;21.07;;;-1.20;18.20;;;;;;5016691;28;20190;-78
2023/01/21 03:12:07;;;;;;;35.00;20.83;;;-1.10;8.70;;;;;;5017839;28;20247;-80
2023/01/21 03:17:58;;;;;;;35.20;19.87;;;-1.10;1.00;;;;;;5016854;28;20330;-80
2023/01/21 03:20:26;;;;;;;36.33;20.37;;;-1.00;1.00;;;;;;5017761;28;20191;-80
2023/01/21 03:22:56;;;;;;;35.30;20.07;;;-1.10;1.00;;;;;;5015814;28;20180;-81
2023/01/21 03:25:24;;;;;;;31.73;18.67;;;-1.10;1.00;;;;;;5017300;28;20260;-79
2023/01/21 03:27:51;;;;;;;33.23;18.53;;;-1.00;1.00;;;;;;5016575;28;20758;-81
2023/01/21 03:30:20;;;;;;;30.10;18.17;;;-1.00;1.00;;;;;;5020316;28;20183;-78
2023/01/21 03:32:49;;;;;;;27.97;16.87;;;-1.00;1.00;;;;;;5017532;28;20188;-80
2023/01/21 03:35:21;;;;;;;28.10;16.60;;;-0.90;1.00;;;;;;5019021;28;20192;-81
2023/01/21 03:38:07;;;;;;;25.03;15.13;;;-1.00;1.00;;;;;;5013653;28;20194;-80
2023/01/21 03:40:40;;;;;;;21.33;13.27;;;-1.00;1.00;;;;;;5011811;28;20246;-80
2023/01/21 03:43:06;;;;;;;21.70;13.57;;;-1.10;99.90;;;;;;5009129;28;20747;-80
2023/01/21 03:45:46;;;;;;;23.67;14.70;;;-1.10;99.90;;;;;;5010996;28;20277;-80
2023/01/21 03:48:26;;;;;;;22.10;12.97;;;-1.10;99.90;;;;;;5026213;28;20588;-80
2023/01/21 03:50:58;;;;;;;21.07;13.17;;;-1.00;99.90;;;;;;5011389;28;20180;-80
2023/01/21 03:53:24;;;;;;;20.33;12.97;;;-1.00;99.90;;;;;;5016708;28;20200;-80
2023/01/21 03:55:50;;;;;;;21.53;13.10;;;-1.00;99.90;;;;;;5016080;28;20262;-80
2023/01/21 03:58:16;;;;;;;20.80;13.87;;;-1.00;99.90;;;;;;5016925;28;20889;-80
2023/01/21 04:00:42;;;;;;;18.50;12.10;;;-0.80;99.90;;;;;;5016695;28;20230;-81
2023/01/21 04:03:08;;;;;;;20.80;12.80;;;-0.90;99.90;;;;;;5016165;28;20187;-80
2023/01/21 04:05:34;;;;;;;17.27;11.17;;;-0.80;99.90;;;;;;5016479;28;20227;-81
2023/01/21 04:08:01;;;;;;;20.33;11.63;;;-0.90;99.90;;;;;;5014557;28;20203;-81
2023/01/21 04:10:26;;;;;;;22.97;11.93;;;-0.90;99.90;;;;;;5015165;28;20194;-79
2023/01/21 04:12:52;;;;;;;19.73;11.90;;;-0.90;99.90;;;;;;5014942;28;20195;-80
2023/01/21 04:15:17;;;;;;;19.43;12.37;;;-0.90;99.90;;;;;;5014257;28;20223;-81
2023/01/21 04:17:43;;;;;;;19.77;12.50;;;-0.90;99.90;;;;;;5014275;28;20229;-80
2023/01/21 04:20:09;;;;;;;18.60;12.03;;;-0.90;99.90;;;;;;5014434;28;20191;-78
2023/01/21 04:22:34;;;;;;;18.03;11.60;;;-0.90;99.90;;;;;;5014173;28;20222;-81
2023/01/21 04:25:00;;;;;;;17.13;11.37;;;-0.90;99.90;;;;;;5015401;28;20187;-81
2023/01/21 04:27:26;;;;;;;13.03;9.87;;;-0.90;99.90;;;;;;5016411;28;20575;-79
2023/01/21 04:29:51;;;;;;;16.07;10.07;;;-0.80;99.90;;;;;;5015391;28;20245;-79
2023/01/21 04:32:17;;;;;;;13.37;8.63;;;-0.80;99.90;;;;;;5016302;28;20191;-78
2023/01/21 04:34:42;;;;;;;13.93;9.10;;;-0.80;99.90;;;;;;5015679;28;20193;-79
2023/01/21 04:37:08;;;;;;;13.97;8.90;;;-0.70;99.90;;;;;;5015416;28;20287;-80
2023/01/21 04:39:33;;;;;;;13.10;8.70;;;-0.70;99.90;;;;;;5013164;28;20184;-81
2023/01/21 04:41:59;;;;;;;14.30;9.43;;;-0.70;99.90;;;;;;5015156;28;20673;-80
2023/01/21 04:44:25;;;;;;;14.13;9.23;;;-0.80;99.90;;;;;;5014736;28;20212;-80
2023/01/21 04:46:50;;;;;;;15.97;10.47;;;-0.80;99.90;;;;;;5030525;28;20254;-79
2023/01/21 04:49:16;;;;;;;14.03;7.93;;;-0.70;99.90;;;;;;5014992;28;20215;-80
2023/01/21 04:51:42;;;;;;;12.93;8.03;;;-0.70;99.90;;;;;;5014538;28;20192;-79
2023/01/21 04:54:09;;;;;;;13.13;8.13;;;-0.70;99.90;;;;;;5013594;28;20190;-80
2023/01/21 04:56:35;;;;;;;14.10;8.23;;;-0.50;99.90;;;;;;5013143;28;20579;-79
2023/01/21 04:59:00;;;;;;;16.00;8.30;;;-0.60;99.90;;;;;;5012963;28;20191;-80
2023/01/21 05:01:26;;;;;;;11.77;6.70;;;-0.70;99.90;;;;;;5014423;28;20200;-79
2023/01/21 05:03:51;;;;;;;11.83;7.00;;;-0.70;99.90;;;;;;5014492;28;20203;-81
2023/01/21 05:06:17;;;;;;;12.90;8.37;;;-0.80;99.90;;;;;;5013068;28;20211;-79
2023/01/21 05:08:42;;;;;;;12.47;7.97;;;-0.80;99.90;;;;;;5012530;28;20298;-79
2023/01/21 05:11:10;;;;;;;15.63;9.00;;;-0.70;99.90;;;;;;5014071;28;20206;-80
2023/01/21 05:13:35;;;;;;;13.10;8.83;;;-0.80;99.90;;;;;;5015342;28;20278;-79
2023/01/21 05:16:07;;;;;;;16.73;9.90;;;-0.80;99.90;;;;;;5013066;28;20227;-80
2023/01/21 05:18:33;;;;;;;18.00;10.73;;;-0.80;99.90;;;;;;5012384;28;20215;-80
2023/01/21 05:20:58;;;;;;;17.00;10.17;;;-0.80;99.90;;;;;;5013385;28;20783;-78
2023/01/21 05:23:24;;;;;;;16.50;10.83;;;-0.80;99.90;;;;;;5014120;28;20266;-77
2023/01/21 05:25:49;;;;;;;19.40;10.97;;;-0.80;99.90;;;;;;5014493;28;20271;-81
2023/01/21 05:28:15;;;;;;;13.43;9.03;;;-0.80;99.90;;;;;;5013954;28;20622;-79
2023/01/21 05:30:40;;;;;;;8.87;6.03;;;-0.80;99.90;;;;;;5013894;28;20190;-80
2023/01/21 05:33:06;;;;;;;11.67;7.17;;;-0.90;99.90;;;;;;5013877;28;20222;-78
2023/01/21 05:35:33;;;;;;;12.97;7.43;;;-0.90;99.90;;;;;;5014346;28;20215;-78
2023/01/21 05:37:59;;;;;;;10.70;7.00;;;-0.90;99.90;;;;;;5012035;28;20187;-80
2023/01/21 05:40:24;;;;;;;13.03;8.13;;;-1.00;99.90;;;;;;5014360;28;20198;-80
2023/01/21 05:42:50;;;;;;;15.60;9.03;;;-1.00;99.90;;;;;;5012991;28;20206;-79
2023/01/21 05:45:16;;;;;;;17.23;9.67;;;-1.10;99.90;;;;;;5011142;28;20240;-80
2023/01/21 05:47:41;;;;;;;14.80;9.30;;;-1.20;99.90;;;;;;5013696;28;20210;-81
2023/01/21 05:50:08;;;;;;;13.97;8.97;;;-1.20;99.90;;;;;;5013551;28;20545;-80
2023/01/21 05:52:34;;;;;;;17.40;9.67;;;-1.20;99.90;;;;;;5012864;28;20188;-80
2023/01/21 05:54:59;;;;;;;15.27;9.13;;;-1.30;99.90;;;;;;5014711;28;20210;-79
2023/01/21 05:57:25;;;;;;;15.97;9.93;;;-1.20;99.90;;;;;;5013210;28;20281;-81
2023/01/21 05:59:50;;;;;;;17.87;10.30;;;-1.30;99.90;;;;;;5013882;28;20383;-78
2023/01/21 06:02:16;;;;;;;20.97;10.47;;;-1.30;99.90;;;;;;5014417;28;20618;-80
2023/01/21 06:04:41;;;;;;;17.60;10.43;;;-1.30;99.90;;;;;;5013386;28;20564;-81
2023/01/21 06:07:07;;;;;;;21.27;10.27;;;-1.30;99.90;;;;;;5013781;28;20211;-79
2023/01/21 06:09:33;;;;;;;20.73;10.87;;;-1.40;99.90;;;;;;5013671;28;20199;-81
2023/01/21 06:11:58;;;;;;;19.30;11.03;;;-1.30;99.90;;;;;;5014599;28;20652;-79
2023/01/21 06:14:24;;;;;;;16.77;11.10;;;-1.30;99.90;;;;;;5013657;28;20184;-81
2023/01/21 06:16:49;;;;;;;19.70;11.50;;;-1.30;99.90;;;;;;5014399;28;20230;-77
2023/01/21 06:19:15;;;;;;;20.90;12.10;;;-1.30;99.90;;;;;;5029377;28;20187;-80
2023/01/21 06:21:40;;;;;;;20.33;11.93;;;-1.40;99.90;;;;;;5014024;28;20194;-80
2023/01/21 06:24:06;;;;;;;21.67;11.40;;;-1.40;99.90;;;;;;5012096;28;20188;-80
2023/01/21 06:26:32;;;;;;;24.00;12.93;;;-1.50;99.90;;;;;;5011512;28;20219;-79
2023/01/21 06:28:58;;;;;;;23.37;11.80;;;-1.40;99.90;;;;;;5013677;28;20218;-81
2023/01/21 06:31:24;;;;;;;20.20;12.10;;;-1.40;99.90;;;;;;5013039;28;20218;-79
2023/01/21 06:33:49;;;;;;;22.30;12.83;;;-1.40;99.90;;;;;;5013310;28;20205;-81
2023/01/21 06:36:15;;;;;;;23.73;12.80;;;-1.40;99.90;;;;;;5014327;28;20231;-80
2023/01/21 06:38:40;;;;;;;24.60;13.10;;;-1.50;99.90;;;;;;5014043;28;20195;-81
2023/01/21 06:41:06;;;;;;;25.50;13.30;;;-1.50;99.90;;;;;;5012191;28;20257;-79
2023/01/21 06:43:31;;;;;;;24.90;11.83;;;-1.50;99.90;;;;;;5013878;28;20230;-80
2023/01/21 06:45:57;;;;;;;21.27;11.87;;;-1.40;99.90;;;;;;5013196;28;20211;-80
2023/01/21 06:48:22;;;;;;;17.70;10.47;;;-1.50;99.90;;;;;;5012059;28;20203;-79
2023/01/21 06:50:48;;;;;;;17.23;10.10;;;-1.50;99.90;;;;;;5012039;28;20192;-80
2023/01/21 06:53:14;;;;;;;18.73;11.13;;;-1.50;99.90;;;;;;5012730;28;20184;-79
2023/01/21 06:55:40;;;;;;;19.07;11.03;;;-1.40;99.90;;;;;;5013811;28;20207;-80
2023/01/21 06:58:05;;;;;;;16.17;9.90;;;-1.50;99.90;;;;;;5013711;28;20653;-81
2023/01/21 07:00:31;;;;;;;18.60;10.50;;;-1.50;99.90;;;;;;5012651;28;20304;-80
2023/01/21 07:02:58;;;;;;;20.57;10.07;;;-1.50;99.90;;;;;;5012805;28;20650;-79
2023/01/21 07:05:24;;;;;;;18.37;10.77;;;-1.50;99.90;;;;;;5013866;28;20234;-79
2023/01/21 07:07:52;;;;;;;16.60;10.27;;;-1.50;99.90;;;;;;5011985;28;20208;-79
2023/01/21 07:10:17;;;;;;;19.80;10.13;;;-1.50;99.90;;;;;;5014033;28;20187;-80
2023/01/21 07:12:43;;;;;;;16.63;10.30;;;-0.50;99.90;;;;;;5012227;28;20191;-80
2023/01/21 07:15:09;;;;;;;19.10;10.37;;;-1.40;99.90;;;;;;5012852;28;20192;-78
2023/01/21 07:17:34;;;;;;;18.17;10.57;;;-1.40;99.90;;;;;;5013509;28;20186;-78
2023/01/21 07:20:00;;;;;;;20.47;11.17;;;-1.40;99.90;;;;;;5013367;28;20175;-80
2023/01/21 07:22:25;;;;;;;19.13;10.93;;;-1.40;99.90;;;;;;5013794;28;20188;-79
2023/01/21 07:24:51;;;;;;;21.70;11.83;;;-1.40;99.90;;;;;;5011194;28;20188;-81
2023/01/21 07:27:17;;;;;;;34.57;18.70;;;-1.40;99.90;;;;;;5013397;28;20211;-78
2023/01/21 07:29:42;;;;;;;23.67;13.87;;;-1.40;99.90;;;;;;5010092;28;20183;-79
2023/01/21 07:32:08;;;;;;;22.60;12.07;;;-1.40;99.90;;;;;;5013672;28;20254;-81
2023/01/21 07:34:33;;;;;;;18.90;11.17;;;-1.40;99.90;;;;;;5015004;28;20180;-81
2023/01/21 07:36:59;;;;;;;20.30;11.30;;;-1.40;99.90;;;;;;5015258;28;20262;-80
2023/01/21 07:39:25;;;;;;;18.63;11.30;;;-1.30;99.90;;;;;;5014510;28;20192;-81
2023/01/21 07:41:50;;;;;;;19.70;12.17;;;-1.30;99.90;;;;;;5016325;28;20194;-81
2023/01/21 07:44:16;;;;;;;21.70;12.83;;;-1.30;99.90;;;;;;5012952;28;20203;-80
2023/01/21 07:46:42;;;;;;;20.03;12.87;;;-1.20;99.90;;;;;;5014900;28;20215;-81
2023/01/21 07:49:08;;;;;;;22.50;14.20;;;-1.20;99.90;;;;;;5013592;28;20215;-83
2023/01/21 07:51:34;;;;;;;27.73;15.70;;;-1.20;99.90;;;;;;5013807;28;20188;-81
2023/01/21 07:53:59;;;;;;;24.60;14.93;;;-1.20;99.90;;;;;;5014740;28;20215;-80
2023/01/21 07:56:26;;;;;;;34.50;21.47;;;-1.20;99.90;;;;;;5011706;28;20211;-81
2023/01/21 07:58:51;;;;;;;26.67;17.90;;;-1.10;99.90;;;;;;5009749;28;20290;-79
2023/01/21 08:01:17;;;;;;;24.13;15.83;;;-1.20;99.90;;;;;;5006679;28;20259;-81
2023/01/21 08:03:42;;;;;;;21.60;13.13;;;-1.10;99.90;;;;;;5009253;28;20241;-78
2023/01/21 08:06:08;;;;;;;17.90;11.33;;;-1.10;99.90;;;;;;5007731;28;20215;-80
2023/01/21 08:08:33;;;;;;;20.57;11.83;;;-1.10;99.90;;;;;;5008933;28;20261;-81
2023/01/21 08:10:59;;;;;;;20.03;12.33;;;-1.10;99.90;;;;;;5008286;28;20198;-79
2023/01/21 08:13:25;;;;;;;22.90;12.17;;;-1.00;99.90;;;;;;5008634;28;20184;-81
2023/01/21 08:15:51;;;;;;;31.70;17.17;;;-0.90;99.90;;;;;;5011003;28;20619;-80
2023/01/21 08:18:18;;;;;;;24.67;14.63;;;-0.90;99.90;;;;;;5010280;28;20195;-81
2023/01/21 08:20:44;;;;;;;21.03;12.33;;;-0.80;99.90;;;;;;5008259;28;20583;-78
2023/01/21 08:23:10;;;;;;;20.97;12.70;;;-0.80;99.90;;;;;;5008164;28;20279;-78
2023/01/21 08:25:35;;;;;;;20.90;12.27;;;-0.70;99.90;;;;;;5008986;28;20219;-77
2023/01/21 08:28:01;;;;;;;23.90;12.40;;;-0.70;99.90;;;;;;5009533;28;20759;-80
2023/01/21 08:30:27;;;;;;;22.10;11.97;;;-0.70;99.90;;;;;;5011627;28;20183;-78
2023/01/21 08:32:53;;;;;;;22.00;14.23;;;-0.70;99.90;;;;;;5008360;28;20202;-79
2023/01/21 08:35:19;;;;;;;19.73;12.33;;;-0.80;99.90;;;;;;5008496;28;20183;-78
2023/01/21 08:37:44;;;;;;;19.03;11.90;;;-0.70;99.90;;;;;;5007303;28;20729;-82
2023/01/21 08:40:11;;;;;;;17.97;10.80;;;-0.70;99.90;;;;;;5009108;28;20998;-79
2023/01/21 08:42:36;;;;;;;17.63;10.53;;;-0.60;99.90;;;;;;5008287;28;20207;-79
2023/01/21 08:45:02;;;;;;;17.63;11.17;;;-0.70;99.90;;;;;;5007695;28;20241;-77
2023/01/21 08:47:28;;;;;;;18.80;11.50;;;-0.70;99.90;;;;;;5008838;28;22084;-77
2023/01/21 08:49:53;;;;;;;17.70;10.77;;;-0.70;99.90;;;;;;5006167;28;20219;-79
2023/01/21 08:52:20;;;;;;;17.37;10.90;;;-0.60;99.90;;;;;;5009891;28;21017;-80
2023/01/21 08:54:46;;;;;;;17.13;11.20;;;-0.50;99.90;;;;;;5009407;28;20179;-80
2023/01/21 08:57:11;;;;;;;19.97;11.57;;;-0.50;99.90;;;;;;5005196;28;20218;-80
2023/01/21 08:59:37;;;;;;;17.43;10.90;;;-0.50;99.90;;;;;;5005928;28;20195;-77
2023/01/21 09:02:03;;;;;;;14.67;10.23;;;-0.40;99.90;;;;;;5008025;28;20180;-77
2023/01/21 09:04:29;;;;;;;14.90;9.93;;;-0.40;99.90;;;;;;5019149;28;20191;-79
2023/01/21 09:06:55;;;;;;;19.27;10.50;;;-0.40;99.90;;;;;;5003750;28;20210;-79
2023/01/21 09:09:20;;;;;;;13.73;9.60;;;-0.20;99.90;;;;;;5004558;28;20207;-79
2023/01/21 09:11:46;;;;;;;15.93;10.10;;;-0.10;99.90;;;;;;5002215;28;20677;-78
2023/01/21 09:14:12;;;;;;;14.27;8.63;;;-0.20;99.90;;;;;;5004321;28;20191;-78
2023/01/21 09:16:37;;;;;;;14.27;8.70;;;-0.20;99.90;;;;;;5005789;28;20211;-81
2023/01/21 09:19:04;;;;;;;14.57;8.00;;;-0.10;99.90;;;;;;5006278;28;20188;-80
2023/01/21 09:21:33;;;;;;;12.70;8.67;;;-0.10;99.90;;;;;;5008142;28;20487;-78
2023/01/21 09:23:59;;;;;;;13.93;8.30;;;-0.10;99.90;;;;;;5007436;28;20997;-78
2023/01/21 09:26:25;;;;;;;13.97;8.00;;;-0.10;99.90;;;;;;5005406;28;20291;-80
2023/01/21 09:28:55;;;;;;;13.77;8.40;;;0.00;87.10;;;;;;5006483;28;20281;-80
2023/01/21 09:31:22;;;;;;;12.37;8.23;;;0.10;76.30;;;;;;5007982;28;20266;-78
2023/01/21 09:33:52;;;;;;;13.40;8.43;;;0.20;76.20;;;;;;5011396;28;20247;-78
2023/01/21 09:36:20;;;;;;;16.33;9.90;;;0.20;86.70;;;;;;5009349;28;21011;-81
2023/01/21 09:38:47;;;;;;;14.90;9.37;;;0.10;75.80;;;;;;5008221;28;20191;-82
2023/01/21 09:41:34;;;;;;;17.40;10.13;;;0.10;86.40;;;;;;5008198;28;20180;-79
2023/01/21 09:44:09;;;;;;;14.20;9.60;;;0.00;79.90;;;;;;5005785;28;20222;-77
2023/01/21 09:46:52;;;;;;;15.37;9.90;;;0.10;82.10;;;;;;5002211;28;20217;-77
2023/01/21 09:49:23;;;;;;;14.63;9.40;;;0.00;88.90;;;;;;5001240;28;20257;-79
2023/01/21 09:52:01;;;;;;;16.63;9.67;;;0.00;98.20;;;;;;5004670;28;20180;-77
2023/01/21 09:54:32;;;;;;;16.77;10.47;;;0.00;99.90;;;;;;5004699;28;20203;-80
2023/01/21 09:57:25;;;;;;;17.27;10.30;;;0.10;98.40;;;;;;5004004;28;20199;-80
2023/01/21 10:00:03;;;;;;;14.60;10.10;;;0.20;89.70;;;;;;5025046;28;20180;-80
2023/01/21 10:02:47;;;;;;;31.33;15.80;;;0.20;93.40;;;;;;5010095;28;20218;-79
2023/01/21 10:05:32;;;;;;;21.47;12.50;;;0.20;92.10;;;;;;5008179;28;20187;-79
2023/01/21 10:08:12;;;;;;;18.27;11.43;;;0.20;95.40;;;;;;5011293;28;20214;-80
2023/01/21 10:10:56;;;;;;;21.00;12.63;;;0.10;98.20;;;;;;5009786;28;20175;-79
2023/01/21 10:13:56;;;;;;;17.97;11.57;;;0.20;99.90;;;;;;5006038;28;20205;-80
2023/01/21 10:16:28;;;;;;;23.10;13.03;;;0.70;99.90;;;;;;5024872;28;20229;-79
2023/01/21 10:18:55;;;;;;;18.90;12.37;;;0.30;98.90;;;;;;5008544;28;20567;-79
2023/01/21 10:21:42;;;;;;;19.30;12.60;;;0.30;94.30;;;;;;5007852;28;20192;-80
2023/01/21 10:24:32;;;;;;;18.47;11.33;;;0.40;93.40;;;;;;5005562;28;20405;-79
2023/01/21 10:26:59;;;;;;;19.00;12.67;;;0.50;91.10;;;;;;5019022;28;20740;-79
2023/01/21 10:29:25;;;;;;;18.43;11.13;;;0.40;87.00;;;;;;5003017;28;20220;-77
2023/01/21 10:32:00;;;;;;;21.57;13.10;;;0.30;90.50;;;;;;5006205;28;21046;-79
2023/01/21 10:34:30;;;;;;;23.60;13.00;;;0.30;99.90;;;;;;5005557;28;20942;-79
2023/01/21 10:37:19;;;;;;;20.63;12.57;;;0.40;99.90;;;;;;5004054;28;20203;-79
2023/01/21 10:40:16;;;;;;;19.27;11.80;;;0.50;96.50;;;;;;5002521;28;20203;-79
2023/01/21 10:43:02;;;;;;;19.70;12.10;;;0.50;93.60;;;;;;5003353;28;20238;-78
2023/01/21 10:45:32;;;;;;;21.30;12.37;;;0.60;92.70;;;;;;5003728;28;20203;-81
2023/01/21 10:48:20;;;;;;;21.60;12.20;;;0.80;85.50;;;;;;5009404;28;20739;-80
2023/01/21 10:51:15;;;;;;;15.13;10.40;;;0.70;67.60;;;;;;5020069;28;20183;-81
2023/01/21 10:53:51;;;;;;;19.57;10.90;;;0.80;66.40;;;;;;5004239;28;20432;-78
2023/01/21 10:56:40;;;;;;;18.57;11.23;;;0.80;55.00;;;;;;5005649;28;20217;-77
2023/01/21 10:59:10;;;;;;;17.90;11.50;;;0.90;44.00;;;;;;5005172;28;20192;-80
2023/01/21 11:01:39;;;;;;;17.40;11.53;;;0.80;50.80;;;;;;5012708;28;20222;-83
2023/01/21 11:04:13;;;;;;;19.07;12.07;;;0.90;53.20;;;;;;5012526;28;20646;-81
2023/01/21 11:06:39;;;;;;;21.77;14.37;;;0.90;48.50;;;;;;5011426;28;20744;-81
2023/01/21 11:09:09;;;;;;;22.87;14.50;;;1.10;46.10;;;;;;5009016;28;20225;-79
2023/01/21 11:11:36;;;;;;;19.50;13.20;;;1.10;41.90;;;;;;5009428;28;20199;-78
2023/01/21 11:14:02;;;;;;;19.90;12.73;;;1.20;37.80;;;;;;5008170;28;20179;-78
2023/01/21 11:16:44;;;;;;;19.53;12.90;;;1.10;30.30;;;;;;5008253;28;20326;-77
2023/01/21 11:19:36;;;;;;;19.63;12.30;;;1.10;38.10;;;;;;5007610;28;20250;-78
2023/01/21 11:22:15;;;;;;;17.50;12.20;;;1.30;44.40;;;;;;5010674;28;20275;-78
2023/01/21 11:24:43;;;;;;;17.80;11.63;;;1.40;17.80;;;;;;5012349;28;20195;-78
2023/01/21 11:27:21;;;;;;;18.50;12.03;;;1.40;19.00;;;;;;5009856;28;20219;-78
2023/01/21 11:29:48;;;;;;;18.50;11.63;;;1.40;22.00;;;;;;5008029;28;20179;-78
2023/01/21 11:32:20;;;;;;;19.20;11.50;;;1.50;9.50;;;;;;5010134;28;20172;-78
2023/01/21 11:34:48;;;;;;;19.77;13.03;;;1.50;6.20;;;;;;5009879;28;20188;-76
2023/01/21 11:37:23;;;;;;;17.83;11.10;;;1.40;16.30;;;;;;5009916;28;20205;-77
2023/01/21 11:40:11;;;;;;;18.87;10.83;;;1.60;13.80;;;;;;5008455;28;20188;-76
2023/01/21 11:43:26;;;;;;;17.87;12.03;;;1.50;8.10;;;;;;5010123;28;20653;-78
2023/01/21 11:45:54;;;;;;;28.03;22.13;;;3.00;11.20;;;;;;5004978;28;20235;-78
2023/01/21 11:48:20;;;;;;;16.83;10.40;;;1.40;11.80;;;;;;5007019;28;20207;-76
2023/01/21 11:50:45;;;;;;;20.20;11.50;;;1.50;9.30;;;;;;5003054;28;20188;-77
2023/01/21 11:53:18;;;;;;;18.33;11.77;;;1.60;4.00;;;;;;5000908;28;20271;-77
2023/01/21 11:55:58;;;;;;;23.03;13.67;;;1.60;6.60;;;;;;5003270;28;20777;-77
2023/01/21 11:58:28;;;;;;;20.80;12.93;;;1.80;1.40;;;;;;5005776;28;20192;-77
2023/01/21 12:00:56;;;;;;;21.37;12.77;;;1.80;1.00;;;;;;5006948;28;20926;-78
2023/01/21 12:03:50;;;;;;;14.20;9.97;;;1.80;1.00;;;;;;5011128;28;20504;-78
2023/01/21 12:06:24;;;;;;;15.70;10.27;;;1.80;1.00;;;;;;5010891;28;20704;-79
2023/01/21 12:08:55;;;;;;;14.57;10.07;;;1.90;1.00;;;;;;5010731;28;20191;-77
2023/01/21 12:11:23;;;;;;;15.37;10.10;;;2.00;1.00;;;;;;5009229;28;20369;-77
2023/01/21 12:14:03;;;;;;;15.67;10.57;;;2.00;1.00;;;;;;5010158;28;20180;-77
2023/01/21 12:16:42;;;;;;;15.90;9.87;;;2.00;1.00;;;;;;5009798;28;20207;-77
2023/01/21 12:19:33;;;;;;;15.47;10.23;;;1.90;1.00;;;;;;5010247;28;20568;-77
2023/01/21 12:22:01;;;;;;;15.43;9.83;;;1.90;1.00;;;;;;5010014;28;20179;-80
2023/01/21 12:24:39;;;;;;;14.17;9.87;;;1.70;1.00;;;;;;5012578;28;20242;-77
2023/01/21 12:27:31;;;;;;;14.87;10.57;;;2.00;1.00;;;;;;5009756;28;20213;-79
2023/01/21 12:30:18;;;;;;;16.37;10.83;;;2.10;1.00;;;;;;5012003;28;20195;-79
2023/01/21 12:32:50;;;;;;;14.43;10.27;;;2.10;1.00;;;;;;5026189;28;20682;-76
2023/01/21 12:35:37;;;;;;;18.17;9.83;;;2.10;1.00;;;;;;5011051;28;20187;-78
2023/01/21 12:38:19;;;;;;;13.77;9.07;;;2.10;1.00;;;;;;5011034;28;20191;-78
2023/01/21 12:41:03;;;;;;;14.20;9.93;;;2.10;1.00;;;;;;5009107;28;20270;-79
2023/01/21 12:43:45;;;;;;;15.20;9.27;;;2.10;1.00;;;;;;5009676;28;20249;-79
2023/01/21 12:46:19;;;;;;;14.20;10.27;;;2.20;1.00;;;;;;5025059;28;21344;-82
2023/01/21 12:49:07;;;;;;;13.87;9.93;;;2.30;1.00;;;;;;5009320;28;20203;-79
2023/01/21 12:51:41;;;;;;;14.87;10.33;;;2.30;1.00;;;;;;5008753;28;20210;-80
2023/01/21 12:54:24;;;;;;;17.30;10.70;;;2.40;1.00;;;;;;5008861;28;20677;-82